createdAt,value
2018-10-09T00:00:55.143Z,98739.89
2018-10-09T00:03:59.245Z,98732.65
2018-10-09T00:07:03.386Z,98730.49
2018-10-09T00:10:07.551Z,98731.29
2018-10-09T00:13:11.722Z,98731.29
2018-10-09T00:16:15.880Z,98728.33
2018-10-09T00:19:20.096Z,98735.34
2018-10-09T00:22:24.237Z,98735.34
2018-10-09T00:25:28.374Z,98739.08
2018-10-09T00:28:32.545Z,98739.08
2018-10-09T00:31:36.763Z,98743.64
2018-10-09T00:34:40.902Z,98746.86
2018-10-09T00:37:45.306Z,98748.75
2018-10-09T00:40:49.450Z,98743.87
2018-10-09T00:43:53.637Z,98743.05
2018-10-09T00:46:57.767Z,98736.84
2018-10-09T00:50:01.923Z,98736.84
2018-10-09T00:53:06.191Z,98733.91
2018-10-09T00:56:10.615Z,98729.05
2018-10-09T00:59:14.747Z,98726.92
2018-10-09T01:02:18.927Z,98727.73
2018-10-09T01:05:23.169Z,98729.34
2018-10-09T01:08:27.326Z,98723.41
2018-10-09T01:11:31.462Z,98724.73
2018-10-09T01:14:35.619Z,98714.52
2018-10-09T01:17:39.814Z,98723.13
2018-10-09T01:20:43.944Z,98725.84
2018-10-09T01:23:48.169Z,98725.84
2018-10-09T01:26:52.350Z,98725.08
2018-10-09T01:29:56.481Z,98729.41
2018-10-09T01:33:01.239Z,98730.98
2018-10-09T01:36:05.350Z,98734.19
2018-10-09T01:39:10.363Z,98726.12
2018-10-09T01:42:14.517Z,98725.60
2018-10-09T01:45:18.653Z,98729.08
2018-10-09T01:48:22.798Z,98729.06
2018-10-09T01:51:26.926Z,98718.84
2018-10-09T01:54:31.058Z,98715.92
2018-10-09T01:57:35.239Z,98713.48
2018-10-09T02:00:39.362Z,98709.20
2018-10-09T02:03:43.499Z,98708.65
2018-10-09T02:06:47.737Z,98702.72
2018-10-09T02:09:51.862Z,98698.42
2018-10-09T02:12:55.994Z,98698.41
2018-10-09T02:16:00.201Z,98695.48
2018-10-09T02:19:04.326Z,98690.37
2018-10-09T02:22:08.466Z,98690.90
2018-10-09T02:25:12.602Z,98685.80
2018-10-09T02:28:16.932Z,98689.83
2018-10-09T02:31:21.067Z,98683.94
2018-10-09T02:34:25.234Z,98686.62
2018-10-09T02:37:29.342Z,98694.89
2018-10-09T02:40:33.480Z,98696.75
2018-10-09T02:43:37.614Z,98693.79
2018-10-09T02:46:41.806Z,98690.30
2018-10-09T02:49:45.936Z,98701.84
2018-10-09T02:52:50.272Z,98703.77
2018-10-09T02:55:54.389Z,98705.34
2018-10-09T02:58:58.519Z,98705.59
2018-10-09T03:02:02.661Z,98706.14
2018-10-09T03:05:07.127Z,98711.26
2018-10-09T03:08:11.395Z,98709.91
2018-10-09T03:11:16.380Z,98712.02
2018-10-09T03:14:20.502Z,98705.85
2018-10-09T03:17:24.627Z,98706.67
2018-10-09T03:20:28.803Z,98704.27
2018-10-09T03:23:32.903Z,98697.00
2018-10-09T03:26:37.034Z,98703.64
2018-10-09T03:29:41.164Z,98704.44
2018-10-09T03:32:45.299Z,98706.33
2018-10-09T03:35:49.428Z,98700.45
2018-10-09T03:38:53.566Z,98694.78
2018-10-09T03:41:57.810Z,98702.53
2018-10-09T03:45:01.972Z,98709.00
2018-10-09T03:48:06.150Z,98708.50
2018-10-09T03:51:10.299Z,98708.78
2018-10-09T03:54:14.427Z,98711.68
2018-10-09T03:57:18.550Z,98715.58
2018-10-09T04:00:22.692Z,98712.36
2018-10-09T04:03:26.830Z,98709.97
2018-10-09T04:06:30.966Z,98711.88
2018-10-09T04:09:35.173Z,98714.81
2018-10-09T04:12:39.304Z,98715.08
2018-10-09T04:15:43.418Z,98719.70
2018-10-09T04:18:47.542Z,98722.92
2018-10-09T04:21:51.670Z,98728.72
2018-10-09T04:24:55.846Z,98727.08
2018-10-09T04:27:59.971Z,98731.38
2018-10-09T04:31:04.126Z,98732.77
2018-10-09T04:34:08.708Z,98734.94
2018-10-09T04:37:12.925Z,98741.70
2018-10-09T04:40:17.052Z,98746.56
2018-10-09T04:43:21.194Z,98739.30
2018-10-09T04:46:25.328Z,98743.65
2018-10-09T04:49:29.495Z,98735.69
2018-10-09T04:52:33.623Z,98740.82
2018-10-09T04:55:37.766Z,98728.48
2018-10-09T04:58:42.007Z,98736.00
2018-10-09T05:01:46.146Z,98735.19
2018-10-09T05:04:50.280Z,98726.88
2018-10-09T05:07:54.398Z,98727.72
2018-10-09T05:10:58.531Z,98736.56
2018-10-09T05:14:02.666Z,98728.50
2018-10-09T05:17:07.178Z,98743.56
2018-10-09T05:20:11.744Z,98740.61
2018-10-09T05:23:15.892Z,98740.05
2018-10-09T05:26:20.016Z,98740.86
2018-10-09T05:29:24.147Z,98748.94
2018-10-09T05:32:28.282Z,98751.37
2018-10-09T05:35:32.493Z,98751.70
2018-10-09T05:38:36.622Z,98758.41
2018-10-09T05:41:40.886Z,98764.34
2018-10-09T05:44:45.078Z,98758.96
2018-10-09T05:47:49.365Z,98761.14
2018-10-09T05:50:53.517Z,98760.33
2018-10-09T05:53:57.639Z,98760.86
2018-10-09T05:57:01.771Z,98770.81
2018-10-09T06:00:06.479Z,98763.55
2018-10-09T06:03:10.615Z,98766.78
2018-10-09T06:06:14.766Z,98768.95
2018-10-09T06:09:18.901Z,98769.20
2018-10-09T06:12:23.031Z,98774.57
2018-10-09T06:15:27.200Z,98769.20
2018-10-09T06:18:31.298Z,98763.84
2018-10-09T06:21:35.454Z,98772.69
2018-10-09T06:24:39.579Z,98772.41
2018-10-09T06:27:43.711Z,98771.05
2018-10-09T06:30:48.723Z,98767.78
2018-10-09T06:33:52.884Z,98761.07
2018-10-09T06:36:57.050Z,98764.30
2018-10-09T06:40:01.190Z,98765.66
2018-10-09T06:43:05.367Z,98766.42
2018-10-09T06:46:09.506Z,98771.54
2018-10-09T06:49:13.683Z,98766.41
2018-10-09T06:52:17.830Z,98769.89
2018-10-09T06:55:21.969Z,98776.56
2018-10-09T06:58:26.343Z,98777.34
2018-10-09T07:01:30.492Z,98766.77
2018-10-09T07:04:34.622Z,98767.55
2018-10-09T07:07:38.758Z,98777.50
2018-10-09T07:10:43.057Z,98772.56
2018-10-09T07:13:47.203Z,98776.02
2018-10-09T07:16:51.351Z,98773.55
2018-10-09T07:19:55.479Z,98774.03
2018-10-09T07:22:59.646Z,98777.24
2018-10-09T07:26:03.777Z,98780.41
2018-10-09T07:29:07.927Z,98772.78
2018-10-09T07:32:12.059Z,98777.08
2018-10-09T07:35:16.199Z,98775.95
2018-10-09T07:38:20.339Z,98773.53
2018-10-09T07:41:24.470Z,98790.86
2018-10-09T07:44:28.619Z,98797.94
2018-10-09T07:47:32.751Z,98799.82
2018-10-09T07:50:36.891Z,98805.98
2018-10-09T07:53:41.082Z,98811.97
2018-10-09T07:56:45.203Z,98810.55
2018-10-09T07:59:49.346Z,98809.20
2018-10-09T08:02:53.534Z,98812.63
2018-10-09T08:05:57.686Z,98810.70
2018-10-09T08:09:01.822Z,98804.41
2018-10-09T08:12:05.970Z,98802.39
2018-10-09T08:15:10.104Z,98808.64
2018-10-09T08:18:14.249Z,98810.59
2018-10-09T08:21:18.374Z,98804.22
2018-10-09T08:24:22.528Z,98804.28
2018-10-09T08:27:26.690Z,98809.69
2018-10-09T08:30:30.837Z,98815.83
2018-10-09T08:33:34.967Z,98808.45
2018-10-09T08:36:39.091Z,98807.91
2018-10-09T08:39:43.224Z,98802.78
2018-10-09T08:42:47.364Z,98805.06
2018-10-09T08:45:51.500Z,98807.42
2018-10-09T08:48:55.644Z,98804.18
2018-10-09T08:51:59.834Z,98812.39
2018-10-09T08:55:03.915Z,98817.17
2018-10-09T08:58:08.051Z,98808.74
2018-10-09T09:01:12.183Z,98813.46
2018-10-09T09:04:16.322Z,98808.06
2018-10-09T09:07:20.503Z,98803.86
2018-10-09T09:10:24.639Z,98813.75
2018-10-09T09:13:28.774Z,98809.76
2018-10-09T09:16:33.000Z,98813.03
2018-10-09T09:19:37.143Z,98812.12
2018-10-09T09:22:41.292Z,98812.31
2018-10-09T09:25:45.431Z,98810.41
2018-10-09T09:28:49.571Z,98810.17
2018-10-09T09:31:53.700Z,98807.68
2018-10-09T09:34:57.827Z,98799.69
2018-10-09T09:38:01.974Z,98794.41
2018-10-09T09:41:06.337Z,98797.41
2018-10-09T09:44:10.469Z,98792.70
2018-10-09T09:47:14.618Z,98784.03
2018-10-09T09:50:18.818Z,98770.91
2018-10-09T09:53:22.949Z,98769.58
2018-10-09T09:56:27.090Z,98775.71
2018-10-09T09:59:31.407Z,98773.37
2018-10-09T10:02:35.582Z,98774.27
2018-10-09T10:05:39.706Z,98768.23
2018-10-09T10:08:43.849Z,98767.38
2018-10-09T10:11:47.999Z,98768.37
2018-10-09T10:14:52.139Z,98759.55
2018-10-09T10:17:56.271Z,98756.59
2018-10-09T10:21:00.408Z,98761.39
2018-10-09T10:24:04.618Z,98761.27
2018-10-09T10:27:08.756Z,98757.97
2018-10-09T10:30:12.900Z,98747.45
2018-10-09T10:33:17.051Z,98747.14
2018-10-09T10:36:21.175Z,98748.52
2018-10-09T10:39:25.322Z,98740.88
2018-10-09T10:42:29.466Z,98731.55
2018-10-09T10:45:33.602Z,98733.36
2018-10-09T10:48:42.440Z,98735.15
2018-10-09T10:51:46.580Z,98724.11
2018-10-09T10:54:50.733Z,98720.23
2018-10-09T10:57:54.861Z,98721.19
2018-10-09T11:00:58.998Z,98713.78
2018-10-09T11:04:03.129Z,98718.69
2018-10-09T11:07:07.276Z,98708.05
2018-10-09T11:10:11.418Z,98709.08
2018-10-09T11:13:15.560Z,98702.23
2018-10-09T11:16:19.986Z,98708.05
2018-10-09T11:19:24.139Z,98707.05
2018-10-09T11:22:28.368Z,98701.44
2018-10-09T11:25:32.495Z,98707.39
2018-10-09T11:28:36.634Z,98699.28
2018-10-09T11:31:40.775Z,98696.34
2018-10-09T11:34:44.922Z,98691.76
2018-10-09T11:37:49.071Z,98686.62
2018-10-09T11:40:53.198Z,98684.02
2018-10-09T11:43:57.338Z,98686.98
2018-10-09T11:47:01.471Z,98681.72
2018-10-09T11:50:06.499Z,98681.38
2018-10-09T11:53:10.651Z,98678.23
2018-10-09T11:56:14.794Z,98672.45
2018-10-09T11:59:18.927Z,98664.83
2018-10-09T12:02:23.055Z,98665.88
2018-10-09T12:05:27.186Z,98653.67
2018-10-09T12:08:31.343Z,98657.20
2018-10-09T12:11:35.486Z,98652.43
2018-10-09T12:14:39.631Z,98652.69
2018-10-09T12:17:43.814Z,98643.41
2018-10-09T12:20:47.968Z,98639.52
2018-10-09T12:23:52.115Z,98635.89
2018-10-09T12:26:56.298Z,98639.66
2018-10-09T12:30:00.399Z,98641.27
2018-10-09T12:33:04.614Z,98645.29
2018-10-09T12:36:08.662Z,98643.92
2018-10-09T12:39:13.894Z,98633.27
2018-10-09T12:42:17.999Z,98633.71
2018-10-09T12:45:22.149Z,98631.98
2018-10-09T12:48:26.258Z,98622.37
2018-10-09T12:51:30.360Z,98618.64
2018-10-09T12:54:34.466Z,98615.11
2018-10-09T12:57:38.589Z,98613.82
2018-10-09T13:00:42.707Z,98605.72
2018-10-09T13:03:46.905Z,98616.72
2018-10-09T13:06:51.008Z,98611.07
2018-10-09T13:09:55.125Z,98607.47
2018-10-09T13:12:59.239Z,98602.53
2018-10-09T13:16:03.352Z,98607.53
2018-10-09T13:19:07.482Z,98600.28
2018-10-09T13:22:11.876Z,98597.16
2018-10-09T13:25:15.697Z,98598.74
2018-10-09T13:28:19.815Z,98593.15
2018-10-09T13:31:23.935Z,98595.98
2018-10-09T13:34:28.093Z,98590.34
2018-10-09T13:37:32.174Z,98585.27
2018-10-09T13:40:36.279Z,98585.86
2018-10-09T13:43:40.388Z,98579.05
2018-10-09T13:46:44.511Z,98575.51
2018-10-09T13:49:48.622Z,98574.84
2018-10-09T13:52:52.730Z,98574.13
2018-10-09T13:55:56.842Z,98572.30
2018-10-09T13:59:00.978Z,98577.72
2018-10-09T14:02:05.115Z,98582.97
2018-10-09T14:05:09.207Z,98578.09
2018-10-09T14:08:13.347Z,98574.55
2018-10-09T14:11:17.647Z,98568.69
2018-10-09T14:14:21.738Z,98563.53
2018-10-09T14:17:25.839Z,98566.64
2018-10-09T14:20:29.952Z,98562.63
2018-10-09T14:23:34.067Z,98563.23
2018-10-09T14:26:38.479Z,98548.13
2018-10-09T14:29:42.570Z,98546.28
2018-10-09T14:32:46.779Z,98551.23
2018-10-09T14:35:50.874Z,98549.42
2018-10-09T14:38:54.980Z,98547.61
2018-10-09T14:41:59.082Z,98537.60
2018-10-09T14:45:03.203Z,98533.16
2018-10-09T14:48:07.328Z,98542.53
2018-10-09T14:51:11.475Z,98546.52
2018-10-09T14:54:15.582Z,98546.80
2018-10-09T14:57:19.707Z,98546.14
2018-10-09T15:00:23.827Z,98543.41
2018-10-09T15:03:28.012Z,98541.69
2018-10-09T15:06:32.066Z,98548.49
2018-10-09T15:09:36.233Z,98546.34
2018-10-09T15:12:40.331Z,98541.44
2018-10-09T15:15:44.463Z,98533.47
2018-10-09T15:18:48.578Z,98547.58
2018-10-09T15:21:52.683Z,98539.73
2018-10-09T15:24:56.837Z,98539.81
2018-10-09T15:28:00.951Z,98548.23
2018-10-09T15:31:05.123Z,98546.38
2018-10-09T15:34:09.255Z,98545.64
2018-10-09T15:37:13.384Z,98548.42
2018-10-09T15:40:17.495Z,98555.53
2018-10-09T15:43:21.610Z,98553.36
2018-10-09T15:46:25.726Z,98556.19
2018-10-09T15:49:29.839Z,98554.91
2018-10-09T15:52:34.027Z,98553.23
2018-10-09T15:55:38.099Z,98553.67
2018-10-09T15:58:42.225Z,98557.77
2018-10-09T16:01:46.334Z,98551.50
2018-10-09T16:04:50.440Z,98552.48
2018-10-09T16:07:54.566Z,98552.48
2018-10-09T16:10:58.710Z,98554.42
2018-10-09T16:14:02.823Z,98554.19
2018-10-09T16:17:07.051Z,98555.28
2018-10-09T16:20:11.151Z,98556.00
2018-10-09T16:23:15.258Z,98557.12
2018-10-09T16:26:19.384Z,98561.50
2018-10-09T16:29:23.504Z,98571.13
2018-10-09T16:32:27.644Z,98571.06
2018-10-09T16:35:31.782Z,98576.98
2018-10-09T16:38:35.890Z,98579.77
2018-10-09T16:41:40.203Z,98578.05
2018-10-09T16:44:44.335Z,98581.83
2018-10-09T16:47:48.442Z,98592.41
2018-10-09T16:50:52.602Z,98587.22
2018-10-09T16:53:56.750Z,98589.93
2018-10-09T16:57:00.885Z,98599.17
2018-10-09T17:00:05.023Z,98598.30
2018-10-09T17:03:09.139Z,98599.64
2018-10-09T17:06:13.267Z,98605.16
2018-10-09T17:09:17.367Z,98611.20
2018-10-09T17:12:21.531Z,98615.99
2018-10-09T17:15:25.716Z,98612.30
2018-10-09T17:18:29.794Z,98616.92
2018-10-09T17:21:33.897Z,98619.05
2018-10-09T17:24:38.004Z,98623.58
2018-10-09T17:27:42.119Z,98629.22
2018-10-09T17:30:46.226Z,98629.36
2018-10-09T17:33:50.391Z,98627.16
2018-10-09T17:36:54.494Z,98630.65
2018-10-09T17:39:58.621Z,98637.09
2018-10-09T17:43:02.751Z,98643.77
2018-10-09T17:46:06.956Z,98642.36
2018-10-09T17:49:11.059Z,98642.95
2018-10-09T17:52:15.154Z,98644.50
2018-10-09T17:55:19.293Z,98646.66
2018-10-09T17:58:23.447Z,98644.27
2018-10-09T18:01:27.599Z,98646.84
2018-10-09T18:04:31.739Z,98646.63
2018-10-09T18:07:35.839Z,98648.08
2018-10-09T18:10:39.963Z,98643.54
2018-10-09T18:13:44.070Z,98647.75
2018-10-09T18:16:48.189Z,98643.17
2018-10-09T18:19:52.303Z,98645.15
2018-10-09T18:22:56.399Z,98643.95
2018-10-09T18:26:01.096Z,98644.34
2018-10-09T18:29:05.198Z,98641.67
2018-10-09T18:32:09.415Z,98648.70
2018-10-09T18:35:13.542Z,98656.48
2018-10-09T18:38:17.637Z,98660.64
2018-10-09T18:41:21.896Z,98656.96
2018-10-09T18:44:25.866Z,98653.24
2018-10-09T18:47:35.375Z,98654.30
2018-10-09T18:50:39.492Z,98652.94
2018-10-09T18:53:44.496Z,98659.84
2018-10-09T18:56:48.607Z,98665.38
2018-10-09T18:59:52.724Z,98661.28
2018-10-09T19:02:56.827Z,98666.52
2018-10-09T19:06:01.058Z,98659.34
2018-10-09T19:09:09.482Z,98658.05
2018-10-09T19:12:13.574Z,98675.12
2018-10-09T19:15:17.683Z,98664.64
2018-10-09T19:18:22.289Z,98667.97
2018-10-09T19:21:26.398Z,98666.71
2018-10-09T19:24:30.515Z,98671.12
2018-10-09T19:27:34.625Z,98667.69
2018-10-09T19:30:38.739Z,98672.86
2018-10-09T19:33:42.883Z,98675.56
2018-10-09T19:36:46.991Z,98677.53
2018-10-09T19:39:51.111Z,98679.75
2018-10-09T19:42:55.226Z,98679.50
2018-10-09T19:45:59.346Z,98682.48
2018-10-09T19:49:03.450Z,98680.18
2018-10-09T19:52:07.675Z,98686.93
2018-10-09T19:55:11.812Z,98686.34
2018-10-09T19:58:15.933Z,98691.58
2018-10-09T20:01:20.223Z,98694.03
2018-10-09T20:04:24.191Z,98699.75
2018-10-09T20:07:28.318Z,98690.59
2018-10-09T20:10:32.534Z,98692.91
2018-10-09T20:13:36.750Z,98697.96
2018-10-09T20:16:41.009Z,98692.36
2018-10-09T20:19:45.230Z,98697.77
2018-10-09T20:22:49.459Z,98696.48
2018-10-09T20:25:53.656Z,98697.14
2018-10-09T20:28:57.938Z,98694.49
2018-10-09T20:32:02.064Z,98699.64
2018-10-09T20:35:06.601Z,98699.95
2018-10-09T20:38:10.836Z,98704.00
2018-10-09T20:41:14.951Z,98694.93
2018-10-09T20:44:19.088Z,98688.27
2018-10-09T20:47:28.474Z,98693.95
2018-10-09T20:50:32.593Z,98696.98
2018-10-09T20:53:36.726Z,98700.12
2018-10-09T20:56:40.883Z,98696.27
2018-10-09T20:59:44.991Z,98696.19
2018-10-09T21:02:49.134Z,98692.19
2018-10-09T21:05:53.427Z,98702.63
2018-10-09T21:08:57.375Z,98701.58
2018-10-09T21:12:01.490Z,98697.92
2018-10-09T21:15:05.617Z,98705.17
2018-10-09T21:18:09.737Z,98701.30
2018-10-09T21:21:13.866Z,98701.81
2018-10-09T21:24:17.986Z,98701.64
2018-10-09T21:27:22.112Z,98704.97
2018-10-09T21:30:26.218Z,98708.52
2018-10-09T21:33:30.330Z,98697.19
2018-10-09T21:36:34.484Z,98703.11
2018-10-09T21:39:38.547Z,98703.25
2018-10-09T21:42:42.674Z,98702.81
2018-10-09T21:45:46.878Z,98702.27
2018-10-09T21:48:50.993Z,98702.36
2018-10-09T21:51:55.126Z,98693.28
2018-10-09T21:54:59.228Z,98694.45
2018-10-09T21:58:03.366Z,98694.52
2018-10-09T22:01:10.326Z,98682.15
2018-10-09T22:04:14.447Z,98683.31
2018-10-09T22:07:19.085Z,98682.30
2018-10-09T22:10:23.237Z,98682.87
2018-10-09T22:13:27.348Z,98683.44
2018-10-09T22:16:31.459Z,98686.38
2018-10-09T22:19:35.591Z,98684.22
2018-10-09T22:22:39.897Z,98684.54
2018-10-09T22:25:44.030Z,98685.08
2018-10-09T22:28:48.158Z,98684.27
2018-10-09T22:31:52.259Z,98684.55
2018-10-09T22:34:56.406Z,98682.68
2018-10-09T22:38:00.528Z,98681.12
2018-10-09T22:41:04.649Z,98683.81
2018-10-09T22:44:08.857Z,98682.75
2018-10-09T22:47:12.908Z,98682.24
2018-10-09T22:50:17.015Z,98679.27
2018-10-09T22:53:21.126Z,98683.06
2018-10-09T22:56:25.246Z,98679.86
2018-10-09T22:59:29.344Z,98677.19
2018-10-09T23:02:33.453Z,98674.78
2018-10-09T23:05:37.582Z,98678.30
2018-10-09T23:08:41.690Z,98674.28
2018-10-09T23:25:56.746Z,98674.85
2018-10-09T23:29:00.850Z,98669.73
2018-10-09T23:32:04.958Z,98667.85
2018-10-09T23:35:09.074Z,98663.53
2018-10-09T23:38:13.190Z,98664.88
2018-10-09T23:41:17.306Z,98658.17
2018-10-09T23:44:21.423Z,98663.02
2018-10-09T23:47:25.540Z,98660.61
2018-10-09T23:50:29.630Z,98653.08
2018-10-09T23:53:33.747Z,98650.13
2018-10-09T23:56:37.862Z,98643.40
2018-10-09T23:59:41.970Z,98644.49
